SCFU weather

Loncopan Airport
Futrono, Los RĂ­os Region, Chile

Public forecast

Using degrees Celsius for public forecast. Weather courtesy of forecast.io.

Closest aviation weather report (METAR) to Loncopan Airport

Closest report is Pichoy Airport, 35.5 nm (65.8 km) NW. Retrieved 2020/06/03 06:00 UTC (31 minutes ago):

SCVD 030600Z AUTO 17006KT 9999 SCT019 07/07 Q1022

Closest aviation forecast (TAF) to Loncopan Airport

Forecast is more than 12 hours old.

Closest forecast is Pichoy Airport, 35.5 nm (65.8 km) NW. Retrieved 2020/06/02 12:00 UTC (19 hours ago):

TAF COR SCVD 021134Z 0212/0224 VRB02KT 9999 -SHRA FEW005 BKN025 TX13/0219Z TN08/0224Z TEMPO 0214/0219 7000 -SHRA FEW005 BKN015 BKN025 BECMG 0219/0221 17004KT 9999 NSW SCT025 SCT100 BECMG 0222/0224 CAVOK